ADDS TAF Board (Experimental) INFO

IDs: Format: Expanded Condensed

Updated at: 1858 UTC 25 Oct 2014

KSLC - Salt Lake City Intl, UT, US

Issued at 1724 UTC 25 Oct 2014
Time1853Z25/19Z25/20Z25/21Z25/22Z25/23Z26/00Z26/01Z26/02Z26/03Z26/04Z26/05Z26/06Z26/07Z
TypeOBSPRVLPRVLPRVLPRVLPRVLPRVLPRVLPRVLPRVLPRVLPRVLPRVLPRVL
VIS10>6>6>6>6>6>6>6>6>6>6>6>6>6
CIG----------------------------
CoverFEWFEWFEWFEWFEWFEWFEWSCTSCTSCTSCTSCTSCTSCT
FltCat--VFRVFRVFRVFRVFRVFRVFRVFRVFRVFRVFRVFRVFR
WX----------------------------
WDir160170170170170170170170170170170170170170
WSpd1820202020202013131313131313
WGst2730303030303020202020202020
R14/32
XWnd-2-6-6-6-6-6-6-4-4-4-4-4-4-4
XGst-3-9-9-9-9-9-9-6-6-6-6-6-6-6
HWnd1819191919191912121212121212
HGst2729292929292919191919191919
R16/34
XWnd52222221111111
XGst73333332222222
HWnd1720202020202013131313131313
HGst2630303030303020202020202020
R17/35
XWnd63333332222222
XGst95555553333333
HWnd1720202020202013131313131313
HGst2530303030303020202020202020
RHB/18
XWnd-6-3-3-3-3-3-3-2-2-2-2-2-2-2
XGst-9-5-5-5-5-5-5-3-3-3-3-3-3-3
HWnd-17-20-20-20-20-20-20-13-13-13-13-13-13-13
HGst-25-30-30-30-30-30-30-20-20-20-20-20-20-20
Raw TAF
KSLC 251724Z 2518/2624 16012G22KT P6SM SKC
  FM251900 17020G30KT P6SM FEW090 FEW120
  FM260100 17013G20KT P6SM SCT090
  FM261000 32010G18KT P6SM VCSH SCT050 BKN070
  FM261400 34008KT P6SM VCSH BKN060


Raw METAR
KSLC 251853Z 16018G27KT 10SM FEW200 24/M01 A3002 RMK AO2 PK WND 16032/1825 SLP120 T02441011
KSLC 251753Z COR 16021G27KT 10SM FEW200 23/M01 A3004 RMK AO2 PK WND 16027/1753 SLP129 T02331006 10233 20122 58010

TAF Board Legend

Hazard VFR MVFR IFR LIFR
Visibility (sm) >5 3≤X≤5 1≤X<3 <1
Ceiling (100 ft) >30 10≤X≤30 5≤X<10 <5
Wind Speed (kt) <10 10≤X<20 20≤X<30 ≥30
Wind Gust (kt) <15 15≤X<25 25≤X<35 ≥35
Weather No Wx Reported VCTS,-TS,-FZRA TS,FZRA +TS,+FZRA


Page loaded:  18:58 UTC  |   11:58 AM Pacific  |   12:58 PM Mountain  |   01:58 PM Central  |   02:58 PM Eastern

 

ADVISORIES

FORECASTS

FORECASTS

OBSERVATIONS

USER TOOLS

ABOUT US